Observations for CARDIFF-WALES ARPT, United Kingdom (EGFF)

EGFF 250320Z AUTO 32007KT 9999 NCD 01/01 Q1014  
EGFF 250250Z AUTO 32008KT 9999 NCD 01/01 Q1014  
EGFF 250220Z AUTO 31007KT 9999 NCD 02/01 Q1014  
EGFF 250150Z AUTO 32007KT 9999 NCD 02/01 Q1014  
EGFF 250120Z AUTO 32007KT 9999 NCD 03/02 Q1014  
EGFF 250050Z AUTO 32006KT 9999 NCD 03/02 Q1013  
EGFF 250020Z AUTO 33005KT 9999 //////TCU 03/02 Q1013
EGFF 242350Z AUTO 30005KT 9999 NCD 03/02 Q1013  
EGFF 242320Z AUTO 35005KT 9999 //////TCU 03/02 Q1013
EGFF 242250Z AUTO 31007KT 9999 -RA FEW023/// BKN049/// //////CB 03/02 Q1013 
EGFF 242220Z AUTO 34012KT 9999 FEW040/// //////CB 03/01 Q1013   
EGFF 242150Z AUTO 32014KT 9999 SCT032/// BKN048/// //////TCU 02/00 Q1013
EGFF 242120Z AUTO 19002KT 9999 FEW048 01/M00 Q1013  
EGFF 242050Z AUTO 26003KT 9999 SCT044 03/00 Q1013   
EGFF 242020Z AUTO 27004KT 9999 NCD 06/02 Q1012  
EGFF 241950Z AUTO 25003KT 9999 NCD 05/01 Q1012  
EGFF 241920Z AUTO 32002KT 9999 NCD 03/00 Q1012  
EGFF 241850Z AUTO 34003KT 9999 NCD 05/00 Q1013  
EGFF 241820Z AUTO 32004KT 9999 NCD 05/01 Q1013  
EGFF 241750Z AUTO 31004KT 9999 NCD 05/00 Q1013  
EGFF 241720Z AUTO 29005KT 9999 NCD 05/01 Q1013  
EGFF 241650Z AUTO 30004KT 9999 NCD 05/01 Q1013  
EGFF 241620Z AUTO 29005KT 9999 NCD 05/01 Q1012  
EGFF 241550Z AUTO 30006KT 9999 NCD 06/01 Q1012  
EGFF 241520Z AUTO 29005KT 9999 NCD 07/02 Q1012  
EGFF 241450Z AUTO 31006KT 9999 NCD 07/02 Q1012  
EGFF 241420Z AUTO 30006KT 9999 NCD 08/02 Q1012  
EGFF 241350Z AUTO 31004KT 9999 NCD 08/02 Q1012  
EGFF 241320Z AUTO 29005KT 9999 NCD 08/02 Q1012  
EGFF 241250Z AUTO 31006KT 9999 NCD 08/02 Q1012  
EGFF 241220Z AUTO 29004KT 260V330 9999 NCD 08/02 Q1012  
EGFF 241150Z AUTO VRB03KT 9999 NCD 08/03 Q1012  
EGFF 241120Z AUTO 36005KT 9999 NCD 08/04 Q1012  
EGFF 241050Z AUTO 01005KT 9999 NCD 07/04 Q1012  
EGFF 241020Z AUTO 01005KT 9999 NCD 05/04 Q1012  
EGFF 240950Z AUTO 36006KT 9999 NCD 04/03 Q1011  
EGFF 240920Z AUTO 36006KT 9999 NCD 03/02 Q1011  
EGFF 240850Z AUTO 36006KT 9999 NCD 03/02 Q1011  
EGFF 240820Z AUTO 36006KT 9999 NCD 03/02 Q1010  
EGFF 240750Z AUTO 01006KT 9999 NCD 03/02 Q1010  
EGFF 240720Z AUTO 35004KT 9999 NCD 04/03 Q1010  
EGFF 240650Z AUTO 01006KT 9999 NCD 03/02 Q1009  
EGFF 240620Z AUTO 36004KT 9999 NCD 04/03 Q1009  
EGFF 240550Z AUTO 35004KT 9999 NCD 04/03 Q1009  
EGFF 240520Z AUTO 36003KT 9999 NCD 05/04 Q1008  
EGFF 240450Z AUTO 34002KT 9999 NCD 05/04 Q1008  
EGFF 240420Z AUTO 36003KT 9999 NCD 05/04 Q1007  
EGFF 240350Z AUTO 36005KT 9999 NCD 05/04 Q1007  
EGFF 240320Z AUTO 36006KT 9999 NCD 05/04 Q1007  
EGFF 240250Z AUTO 36005KT 9999 NCD 05/04 Q1007